Flight Track Log - Related Links

Times and Time Zones

All times are in EST time to prevent confusion due to time zone crossing. See the N406TM flight status page for this flight to view local times or setup timezone preferences in your user account.

Time Position Orientation Groundspeed Altitude Reporting Facility
EST Latitude Longitude Course Direction KTS MPH feet Rate Location/Type
Sat 07:15:26 AM 21.7669 -72.1942 108° East 427 491 4,700  Level Miami Center
Sat 07:16:26 AM 21.7439 -72.1233 109° East 347 399 7,900 3,400 Climbing Miami Center
Sat 07:17:26 AM 21.7147 -72.0619 117° Southeast 271 312 11,500 3,100 Climbing Miami Center
Sat 07:18:26 AM 21.6769 -71.9919 120° Southeast 264 304 14,100 2,300 Climbing Miami Center
Sat 07:19:26 AM 21.6328 -71.9131 121° Southeast 276 318 16,100 2,150 Climbing Miami Center
Sat 07:20:00 AM 21.5859 -71.6751 108° East  Level FlightAware Approximate
Sat 07:20:26 AM 21.5864 -71.8300 121° Southeast 306 352 18,400  Level Miami Center
Sat 07:21:26 AM 21.5375 -71.7406 120° Southeast 330 380 20,700 2,200 Climbing Miami Center
Sat 07:22:26 AM 21.4861 -71.6467 120° Southeast 342 394 22,800 2,100 Climbing Miami Center
Sat 07:23:26 AM 21.4331 -71.5528 121° Southeast 355 409 24,900 2,100 Climbing Miami Center
Sat 07:24:26 AM 21.3794 -71.4547 120° Southeast 369 425 27,000 2,200 Climbing Miami Center
Sat 07:25:26 AM 21.3264 -71.3656 123° Southeast 385 443 29,300 1,650 Climbing Miami Center
Sat 07:26:26 AM 21.2661 -71.2569 121° Southeast 392 451 30,300 1,300 Climbing Miami Center
Sat 07:27:26 AM 21.2122 -71.1567 120° Southeast 405 466 31,900 1,500 Climbing Miami Center
Sat 07:28:26 AM 21.1519 -71.0458 120° Southeast 416 479 33,300 1,500 Climbing Miami Center
Sat 07:29:26 AM 21.0936 -70.9397 120° Southeast 416 479 34,900 1,250 Climbing Miami Center
Sat 07:30:26 AM 21.0331 -70.8289 120° Southeast 416 479 35,800 800 Climbing Miami Center
Sat 07:31:26 AM 20.9681 -70.7164 122° Southeast 426 490 36,500 800 Climbing Miami Center
Sat 07:32:26 AM 20.9050 -70.5994 120° Southeast 438 504 37,400 950 Climbing Miami Center
Sat 07:33:26 AM 20.8397 -70.4828 121° Southeast 449 517 38,400 1,000 Climbing Miami Center
Sat 07:34:26 AM 20.7767 -70.3683 120° Southeast 455 524 39,400 1,050 Climbing Miami Center
Sat 07:35:26 AM 20.7136 -70.2539 120° Southeast 450 518 40,500 800 Climbing Miami Center
Sat 07:36:26 AM 20.6483 -70.1419 122° Southeast 445 512 41,000 250 Climbing Miami Center
Sat 07:37:26 AM 20.5828 -70.0278 122° Southeast 445 512 41,000  Level Miami Center
Sat 07:38:26 AM 20.5169 -69.9075 120° Southeast 451 519 41,000  Level Miami Center
Sat 07:39:26 AM 20.4514 -69.7892 121° Southeast 456 525 41,000  Level Miami Center
Sat 07:40:26 AM 20.3833 -69.6711 122° Southeast 461 531 41,000  Level Miami Center
Sat 07:41:26 AM 20.3156 -69.5556 122° Southeast 461 531 41,000  Level Miami Center
Sat 07:42:26 AM 20.2517 -69.4375 120° Southeast 456 525 41,000  Level Miami Center
Sat 07:43:26 AM 20.1839 -69.3264 123° Southeast 451 519 41,000  Level Miami Center
Sat 07:44:26 AM 20.1222 -69.2131 120° Southeast 446 513 41,000  Level Miami Center
Sat 07:45:26 AM 20.0583 -69.1019 121° Southeast 446 513 41,000  Level Miami Center
Sat 07:46:26 AM 19.9947 -68.9933 122° Southeast 441 507 41,000  Level Miami Center
Sat 07:47:26 AM 19.9289 -68.8847 123° Southeast 441 507 41,000  Level Miami Center
Sat 07:48:26 AM 19.8689 -68.7717 119° Southeast 441 507 41,000  Level Miami Center
Sat 07:49:26 AM 19.8089 -68.6586 119° Southeast 441 507 41,000  Level Miami Center
Sat 07:50:26 AM 19.7711 -68.5333 108° East 441 507 41,000  Level Miami Center
Sat 07:51:26 AM 19.7292 -68.4083 110° East 447 514 41,000  Level Miami Center
Sat 07:52:26 AM 19.7033 -68.2761 102° East 448 516 41,000  Level Miami Center
Sat 07:53:26 AM 19.6669 -68.1467 107° East 448 516 41,000  Level Miami Center
Sat 07:54:26 AM 19.6328 -68.0169 106° East 453 521 41,000  Level Miami Center
Sat 07:55:26 AM 19.6003 -67.8875 105° East 453 521 41,000  Level Miami Center
Sat 07:56:26 AM 19.5597 -67.7583 108° East 453 521 41,000  Level Miami Center
Sat 07:57:54 AM 19.5000 -67.5667 108° East 460 529 41,000  Level San Juan Center
Sat 07:58:54 AM 19.4667 -67.4333 105° East 460 529 41,000  Level San Juan Center
Sat 07:59:54 AM 19.4333 -67.3000 105° East 450 518 41,000  Level San Juan Center
Sat 08:00:54 AM 19.4000 -67.1833 107° East 450 518 41,000  Level San Juan Center
Sat 08:01:54 AM 19.3500 -67.0500 112° Southeast 450 518 41,000  Level San Juan Center
Sat 08:02:54 AM 19.3167 -66.9167 105° East 450 518 41,000  Level San Juan Center
Sat 08:03:54 AM 19.2833 -66.8000 107° East 450 518 41,000  Level San Juan Center
Sat 08:04:55 AM 19.2500 -66.6667 105° East 450 518 41,000  Level San Juan Center
Sat 08:05:55 AM 19.2167 -66.5500 107° East 450 518 41,000  Level San Juan Center
Sat 08:06:55 AM 19.1833 -66.4167 105° East 450 518 41,000  Level San Juan Center
Sat 08:07:55 AM 19.1500 -66.2833 105° East 440 506 41,000  Level San Juan Center
Sat 08:08:55 AM 19.1000 -66.1500 112° Southeast 450 518 41,000  Level San Juan Center
Sat 08:09:55 AM 19.0667 -66.0333 107° East 440 506 41,000  Level San Juan Center
Sat 08:10:55 AM 19.0333 -65.9000 105° East 440 506 41,000  Level San Juan Center
Sat 08:11:55 AM 19.0000 -65.7833 107° East 440 506 41,000  Level San Juan Center
Sat 08:12:56 AM 18.9667 -65.6500 105° East 450 518 41,000  Level San Juan Center
Sat 08:13:56 AM 18.9333 -65.5167 105° East 450 518 41,000  Level San Juan Center
Sat 08:14:56 AM 18.9000 -65.4000 107° East 450 518 41,000  Level San Juan Center
Sat 08:15:56 AM 18.8667 -65.2667 105° East 450 518 41,000  Level San Juan Center
Sat 08:16:56 AM 18.8167 -65.1500 114° Southeast 450 518 41,000  Level San Juan Center
Sat 08:17:56 AM 18.7833 -65.0167 105° East 460 529 41,000  Level San Juan Center
Sat 08:18:57 AM 18.7500 -64.8833 105° East 460 529 41,000 -50 Level San Juan Center
Sat 08:19:56 AM 18.7167 -64.7667 107° East 460 529 40,900 -1,400 Descending San Juan Center
Sat 08:20:57 AM 18.6667 -64.6333 112° Southeast 470 541 38,200 -3,150 Descending San Juan Center
Sat 08:21:56 AM 18.6333 -64.4833 103° East 480 552 34,600 -3,550 Descending San Juan Center
Sat 08:22:57 AM 18.5833 -64.3500 112° Southeast 480 552 31,100 -3,322 Descending San Juan Center
Sat 08:23:57 AM 18.5500 -64.2333 107° East 480 552 27,900 -3,250 Descending San Juan Center
Sat 08:24:57 AM 18.5167 -64.1000 105° East 430 495 24,600 -3,050 Descending San Juan Center
Sat 08:25:57 AM 18.4833 -64.0000 109° East 390 449 21,800 -2,750 Descending San Juan Center
Sat 08:26:57 AM 18.4500 -63.9000 109° East 350 403 19,100 -2,400 Descending San Juan Center
Sat 08:27:57 AM 18.4167 -63.8000 109° East 310 357 17,000 -2,050 Descending San Juan Center
Sat 08:28:57 AM 18.4000 -63.7167 102° East 290 334 15,000 -2,000 Descending San Juan Center

Login

Don't have an account? Register now (free) for customized features, flight alerts, and more!